createdAt,value
2022-09-20T00:00:30.012Z,44.10
2022-09-20T00:01:31.877Z,44.28
2022-09-20T00:02:33.725Z,44.29
2022-09-20T00:03:35.520Z,44.36
2022-09-20T00:04:37.374Z,44.33
2022-09-20T00:05:39.214Z,44.41
2022-09-20T00:06:41.169Z,44.41
2022-09-20T00:07:43.008Z,44.38
2022-09-20T00:08:44.805Z,44.44
2022-09-20T00:09:46.597Z,44.49
2022-09-20T00:10:48.492Z,44.49
2022-09-20T00:11:50.322Z,44.50
2022-09-20T00:12:52.118Z,44.53
2022-09-20T00:13:53.848Z,44.54
2022-09-20T00:14:55.623Z,44.53
2022-09-20T00:15:57.420Z,44.60
2022-09-20T00:16:59.451Z,44.72
2022-09-20T00:18:01.274Z,44.78
2022-09-20T00:19:03.069Z,44.90
2022-09-20T00:20:05.076Z,44.90
2022-09-20T00:21:06.887Z,44.89
2022-09-20T00:22:08.750Z,44.92
2022-09-20T00:23:10.808Z,44.89
2022-09-20T00:24:12.588Z,44.94
2022-09-20T00:25:14.396Z,44.99
2022-09-20T00:26:16.697Z,44.98
2022-09-20T00:27:18.543Z,44.97
2022-09-20T00:28:20.354Z,44.97
2022-09-20T00:29:22.147Z,45.00
2022-09-20T00:30:24.045Z,44.98
2022-09-20T00:31:25.884Z,45.01
2022-09-20T00:32:27.715Z,45.00
2022-09-20T00:33:29.515Z,44.94
2022-09-20T00:34:31.319Z,44.91
2022-09-20T00:35:33.121Z,44.94
2022-09-20T00:36:35.030Z,44.97
2022-09-20T00:37:36.879Z,44.91
2022-09-20T00:38:38.902Z,44.83
2022-09-20T00:39:40.716Z,44.71
2022-09-20T00:40:42.955Z,44.68
2022-09-20T00:41:44.710Z,44.61
2022-09-20T00:42:46.565Z,44.61
2022-09-20T00:43:48.360Z,44.49
2022-09-20T00:44:50.169Z,44.52
2022-09-20T00:45:52.004Z,44.63
2022-09-20T00:46:53.882Z,44.46
2022-09-20T00:47:55.766Z,44.55
2022-09-20T00:48:57.588Z,44.29
2022-09-20T00:49:59.391Z,44.29
2022-09-20T00:51:01.304Z,44.50
2022-09-20T00:52:03.118Z,44.58
2022-09-20T00:53:04.954Z,44.56
2022-09-20T00:54:06.785Z,44.39
2022-09-20T00:55:08.603Z,44.29
2022-09-20T00:56:11.120Z,44.18
2022-09-20T00:57:12.939Z,44.11
2022-09-20T00:58:14.797Z,43.99
2022-09-20T00:59:16.594Z,43.87
2022-09-20T01:00:18.901Z,43.79
2022-09-20T01:01:20.753Z,43.80
2022-09-20T01:02:22.677Z,43.76
2022-09-20T01:03:24.555Z,43.66
2022-09-20T01:04:26.355Z,43.56
2022-09-20T01:05:28.150Z,43.51
2022-09-20T01:06:30.562Z,43.72
2022-09-20T01:07:32.368Z,43.85
2022-09-20T01:08:34.221Z,44.10
2022-09-20T01:09:36.041Z,44.28
2022-09-20T01:10:38.046Z,44.51
2022-09-20T01:11:39.844Z,44.69
2022-09-20T01:12:41.645Z,44.76
2022-09-20T01:13:43.499Z,44.96
2022-09-20T01:14:45.306Z,45.07
2022-09-20T01:15:47.102Z,45.18
2022-09-20T01:16:49.121Z,45.37
2022-09-20T01:17:50.920Z,45.79
2022-09-20T01:18:52.773Z,45.96
2022-09-20T01:19:54.568Z,46.31
2022-09-20T01:20:56.497Z,46.57
2022-09-20T01:21:58.275Z,46.87
2022-09-20T01:23:00.089Z,47.08
2022-09-20T01:24:01.928Z,47.15
2022-09-20T01:25:03.806Z,47.19
2022-09-20T01:26:06.357Z,47.10
2022-09-20T01:27:08.155Z,47.29
2022-09-20T01:28:09.974Z,47.44
2022-09-20T01:29:11.829Z,47.46
2022-09-20T01:30:15.431Z,47.57
2022-09-20T01:31:17.276Z,47.55
2022-09-20T01:32:19.025Z,47.50
2022-09-20T01:33:20.818Z,47.47
2022-09-20T01:34:22.675Z,47.41
2022-09-20T01:35:24.501Z,47.67
2022-09-20T01:36:28.103Z,48.00
2022-09-20T01:37:29.890Z,48.40
2022-09-20T01:38:31.694Z,48.69
2022-09-20T01:39:33.541Z,48.95
2022-09-20T01:40:35.544Z,49.20
2022-09-20T01:41:37.400Z,49.34
2022-09-20T01:42:39.194Z,49.51
2022-09-20T01:43:40.994Z,49.62
2022-09-20T01:44:42.844Z,49.75
2022-09-20T01:45:44.762Z,49.80
2022-09-20T01:46:46.643Z,49.98
2022-09-20T01:47:48.447Z,50.19
2022-09-20T01:48:50.247Z,50.42
2022-09-20T01:49:52.091Z,50.66
2022-09-20T01:50:54.184Z,50.92
2022-09-20T01:51:56.002Z,50.94
2022-09-20T01:52:57.800Z,50.86
2022-09-20T01:53:59.673Z,51.10
2022-09-20T01:55:01.508Z,51.32
2022-09-20T01:56:03.434Z,51.54
2022-09-20T01:57:05.232Z,51.59
2022-09-20T01:58:07.028Z,51.59
2022-09-20T01:59:23.321Z,51.59
2022-09-20T02:00:12.902Z,51.55
2022-09-20T02:01:14.748Z,51.63
2022-09-20T02:02:16.585Z,51.77
2022-09-20T02:03:18.433Z,51.81
2022-09-20T02:04:20.353Z,51.99
2022-09-20T02:05:22.193Z,52.21
2022-09-20T02:06:24.299Z,52.24
2022-09-20T02:07:26.108Z,52.32
2022-09-20T02:08:27.901Z,52.40
2022-09-20T02:09:29.709Z,52.49
2022-09-20T02:10:31.666Z,52.55
2022-09-20T02:11:33.557Z,52.60
2022-09-20T02:12:35.356Z,52.65
2022-09-20T02:13:37.154Z,52.74
2022-09-20T02:14:38.960Z,52.87
2022-09-20T02:15:40.818Z,53.02
2022-09-20T02:16:42.818Z,53.09
2022-09-20T02:17:44.634Z,53.18
2022-09-20T02:18:46.439Z,53.23
2022-09-20T02:19:48.267Z,53.16
2022-09-20T02:20:50.414Z,53.25
2022-09-20T02:21:52.215Z,53.42
2022-09-20T02:22:54.060Z,53.64
2022-09-20T02:23:55.887Z,53.65
2022-09-20T02:24:57.637Z,53.75
2022-09-20T02:25:59.475Z,53.88
2022-09-20T02:27:01.670Z,53.87
2022-09-20T02:28:03.466Z,53.91
2022-09-20T02:29:05.329Z,54.00
2022-09-20T02:30:07.482Z,54.05
2022-09-20T02:31:09.315Z,54.17
2022-09-20T02:32:11.011Z,54.16
2022-09-20T02:33:12.817Z,54.20
2022-09-20T02:34:14.509Z,54.38
2022-09-20T02:35:16.308Z,54.59
2022-09-20T02:36:18.255Z,54.54
2022-09-20T02:37:20.036Z,54.62
2022-09-20T02:38:21.730Z,54.77
2022-09-20T02:39:23.521Z,54.94
2022-09-20T02:40:25.451Z,55.20
2022-09-20T02:41:27.361Z,55.35
2022-09-20T02:42:29.338Z,55.59
2022-09-20T02:43:31.040Z,55.77
2022-09-20T02:44:32.843Z,55.85
2022-09-20T02:45:34.697Z,56.05
2022-09-20T02:46:36.674Z,56.22
2022-09-20T02:47:38.483Z,56.30
2022-09-20T02:48:40.286Z,56.31
2022-09-20T02:49:42.081Z,56.36
2022-09-20T02:50:43.970Z,56.36
2022-09-20T02:51:45.806Z,56.33
2022-09-20T02:52:47.609Z,56.27
2022-09-20T02:53:49.409Z,56.24
2022-09-20T02:54:51.193Z,56.12
2022-09-20T02:55:52.999Z,56.08
2022-09-20T02:56:55.153Z,56.06
2022-09-20T02:57:57.044Z,55.99
2022-09-20T02:58:58.831Z,55.93
2022-09-20T03:00:00.536Z,55.80
2022-09-20T03:01:02.388Z,55.72
2022-09-20T03:02:04.188Z,55.79
2022-09-20T03:03:05.975Z,55.87
2022-09-20T03:04:07.789Z,55.96
2022-09-20T03:05:09.573Z,55.90
2022-09-20T03:06:11.376Z,55.82
2022-09-20T03:07:13.230Z,55.70
2022-09-20T03:08:15.011Z,55.75
2022-09-20T03:09:16.703Z,55.73
2022-09-20T03:10:20.305Z,55.65
2022-09-20T03:11:22.114Z,55.57
2022-09-20T03:12:23.943Z,55.50
2022-09-20T03:13:25.963Z,55.56
2022-09-20T03:14:27.751Z,55.46
2022-09-20T03:15:29.548Z,55.38
2022-09-20T03:16:32.304Z,55.45
2022-09-20T03:17:34.122Z,55.64
2022-09-20T03:18:35.937Z,55.64
2022-09-20T03:19:37.724Z,55.59
2022-09-20T03:20:39.719Z,55.58
2022-09-20T03:21:41.826Z,55.58
2022-09-20T03:22:43.671Z,55.60
2022-09-20T03:23:45.369Z,55.64
2022-09-20T03:24:47.172Z,55.73
2022-09-20T03:25:48.894Z,55.84
2022-09-20T03:26:50.702Z,55.94
2022-09-20T03:27:52.554Z,55.92
2022-09-20T03:28:54.418Z,55.97
2022-09-20T03:29:56.217Z,56.15
2022-09-20T03:30:58.314Z,56.27
2022-09-20T03:32:00.284Z,56.47
2022-09-20T03:33:02.219Z,56.57
2022-09-20T03:34:04.012Z,56.60
2022-09-20T03:35:05.811Z,56.74
2022-09-20T03:36:07.911Z,56.79
2022-09-20T03:37:10.027Z,56.90
2022-09-20T03:38:11.850Z,56.99
2022-09-20T03:39:13.677Z,56.98
2022-09-20T03:40:16.127Z,57.07
2022-09-20T03:41:17.990Z,57.04
2022-09-20T03:42:19.797Z,56.95
2022-09-20T03:43:21.621Z,56.90
2022-09-20T03:44:23.627Z,56.87
2022-09-20T03:45:25.424Z,56.85
2022-09-20T03:46:27.533Z,56.72
2022-09-20T03:47:29.325Z,56.58
2022-09-20T03:48:31.167Z,56.60
2022-09-20T03:49:32.972Z,56.68
2022-09-20T03:50:34.856Z,56.72
2022-09-20T03:51:36.558Z,56.71
2022-09-20T03:52:38.252Z,56.74
2022-09-20T03:53:40.302Z,56.69
2022-09-20T03:54:42.094Z,56.67
2022-09-20T03:55:43.782Z,56.65
2022-09-20T03:56:45.685Z,56.75
2022-09-20T03:57:47.485Z,56.84
2022-09-20T03:58:49.332Z,56.95
2022-09-20T03:59:51.203Z,56.89
2022-09-20T04:00:53.065Z,56.92
2022-09-20T04:01:54.824Z,56.83
2022-09-20T04:02:56.602Z,56.82
2022-09-20T04:03:58.472Z,56.83
2022-09-20T04:05:00.266Z,56.83
2022-09-20T04:06:02.063Z,56.83
2022-09-20T04:07:03.856Z,56.75
2022-09-20T04:08:05.559Z,56.75
2022-09-20T04:09:07.401Z,56.76
2022-09-20T04:10:09.493Z,56.63
2022-09-20T04:11:11.295Z,56.64
2022-09-20T04:12:13.088Z,56.60
2022-09-20T04:13:14.990Z,56.68
2022-09-20T04:14:16.829Z,56.77
2022-09-20T04:15:18.845Z,56.93
2022-09-20T04:16:21.064Z,56.91
2022-09-20T04:17:22.844Z,56.76
2022-09-20T04:18:24.640Z,56.76
2022-09-20T04:19:30.814Z,56.77
2022-09-20T04:20:30.500Z,56.75
2022-09-20T04:21:32.299Z,56.62
2022-09-20T04:22:34.097Z,56.64
2022-09-20T04:23:35.889Z,56.67
2022-09-20T04:24:37.724Z,56.58
2022-09-20T04:25:43.604Z,56.54
2022-09-20T04:26:43.227Z,56.51
2022-09-20T04:27:45.560Z,56.55
2022-09-20T04:28:47.290Z,56.58
2022-09-20T04:29:49.142Z,56.58
2022-09-20T04:30:51.350Z,56.72
2022-09-20T04:31:54.252Z,56.85
2022-09-20T04:32:56.379Z,56.90
2022-09-20T04:33:58.169Z,56.95
2022-09-20T04:35:00.614Z,57.04
2022-09-20T04:36:02.483Z,57.06
2022-09-20T04:37:04.495Z,57.04
2022-09-20T04:38:06.309Z,56.98
2022-09-20T04:39:08.104Z,56.87
2022-09-20T04:40:11.117Z,56.87
2022-09-20T04:41:13.198Z,56.86
2022-09-20T04:42:15.618Z,56.90
2022-09-20T04:43:17.659Z,56.97
2022-09-20T04:44:19.460Z,56.96
2022-09-20T04:45:22.112Z,56.96
2022-09-20T04:46:24.258Z,56.93
2022-09-20T04:47:26.068Z,56.92
2022-09-20T04:48:27.863Z,56.99
2022-09-20T04:49:29.691Z,57.13
2022-09-20T04:50:31.638Z,57.19
2022-09-20T04:51:33.451Z,57.22
2022-09-20T04:52:35.238Z,57.26
2022-09-20T04:53:37.062Z,57.35
2022-09-20T04:54:38.889Z,57.38
2022-09-20T04:55:40.724Z,57.43
2022-09-20T04:56:42.840Z,57.49
2022-09-20T04:57:44.652Z,57.50
2022-09-20T04:58:46.468Z,57.54
2022-09-20T04:59:48.269Z,57.51
2022-09-20T05:00:50.245Z,57.48
2022-09-20T05:01:52.197Z,57.58
2022-09-20T05:02:54.050Z,57.60
2022-09-20T05:03:55.849Z,57.61
2022-09-20T05:04:57.658Z,57.58
2022-09-20T05:05:59.513Z,57.57
2022-09-20T05:07:01.425Z,57.57
2022-09-20T05:08:03.639Z,57.64
2022-09-20T05:09:06.443Z,57.66
2022-09-20T05:10:09.045Z,57.61
2022-09-20T05:11:10.902Z,57.74
2022-09-20T05:12:12.709Z,57.89
2022-09-20T05:13:14.643Z,57.99
2022-09-20T05:14:16.451Z,58.14
2022-09-20T05:15:18.253Z,58.21
2022-09-20T05:16:20.655Z,58.29
2022-09-20T05:17:22.599Z,58.35
2022-09-20T05:18:24.944Z,58.31
2022-09-20T05:19:26.808Z,58.33
2022-09-20T05:20:29.586Z,58.33
2022-09-20T05:21:31.502Z,58.28
2022-09-20T05:22:33.399Z,58.27
2022-09-20T05:23:35.700Z,58.32
2022-09-20T05:24:37.703Z,58.36
2022-09-20T05:25:39.550Z,58.41
2022-09-20T05:26:41.918Z,58.41
2022-09-20T05:27:43.931Z,58.52
2022-09-20T05:28:45.731Z,58.52
2022-09-20T05:29:47.676Z,58.52
2022-09-20T05:30:49.731Z,58.57
2022-09-20T05:31:51.654Z,58.68
2022-09-20T05:32:53.980Z,58.74
2022-09-20T05:33:55.978Z,58.78
2022-09-20T05:34:57.814Z,58.88
2022-09-20T05:35:59.742Z,58.91
2022-09-20T05:37:01.611Z,58.94
2022-09-20T05:38:03.399Z,58.91
2022-09-20T05:39:05.310Z,59.03
2022-09-20T05:40:07.569Z,59.04
2022-09-20T05:41:09.350Z,59.12
2022-09-20T05:42:11.326Z,59.15
2022-09-20T05:43:13.123Z,59.26
2022-09-20T05:44:15.313Z,59.37
2022-09-20T05:45:17.185Z,59.52
2022-09-20T05:46:19.297Z,59.54
2022-09-20T05:47:21.322Z,59.65
2022-09-20T05:48:23.164Z,59.77
2022-09-20T05:49:24.969Z,59.80
2022-09-20T05:50:27.975Z,59.83
2022-09-20T05:51:29.960Z,59.90
2022-09-20T05:52:31.909Z,59.97
2022-09-20T05:53:33.705Z,60.08
2022-09-20T05:54:35.507Z,60.12
2022-09-20T05:55:37.323Z,60.19
2022-09-20T05:56:39.227Z,60.15
2022-09-20T05:57:41.076Z,60.19
2022-09-20T05:58:42.882Z,60.28
2022-09-20T05:59:45.073Z,60.34
2022-09-20T06:00:47.285Z,60.49
2022-09-20T06:01:49.146Z,60.58
2022-09-20T06:02:51.535Z,60.75
2022-09-20T06:03:54.418Z,60.80
2022-09-20T06:04:56.983Z,61.04
2022-09-20T06:05:59.031Z,61.10
2022-09-20T06:07:01.152Z,61.23
2022-09-20T06:08:03.004Z,61.42
2022-09-20T06:09:05.037Z,61.61
2022-09-20T06:10:07.984Z,61.75
2022-09-20T06:11:10.091Z,61.75
2022-09-20T06:12:11.906Z,61.62
2022-09-20T06:13:13.850Z,61.58
2022-09-20T06:14:15.793Z,61.61
2022-09-20T06:15:17.625Z,61.53
2022-09-20T06:16:20.159Z,61.51
2022-09-20T06:17:21.950Z,61.52
2022-09-20T06:18:23.793Z,61.52
2022-09-20T06:19:25.657Z,61.50
2022-09-20T06:20:29.286Z,61.52
2022-09-20T06:21:31.100Z,61.57
2022-09-20T06:22:32.904Z,61.58
2022-09-20T06:23:34.750Z,61.64
2022-09-20T06:24:36.702Z,61.69
2022-09-20T06:25:38.535Z,61.66
2022-09-20T06:26:40.460Z,61.59
2022-09-20T06:27:42.258Z,61.61
2022-09-20T06:28:44.109Z,61.48
2022-09-20T06:29:45.915Z,61.40
2022-09-20T06:30:47.973Z,61.39
2022-09-20T06:31:49.740Z,61.48
2022-09-20T06:32:51.536Z,61.46
2022-09-20T06:33:53.387Z,61.42
2022-09-20T06:34:55.260Z,61.35
2022-09-20T06:35:59.172Z,61.37
2022-09-20T06:37:01.679Z,61.40
2022-09-20T06:38:03.716Z,61.50
2022-09-20T06:39:05.586Z,61.56
2022-09-20T06:40:08.046Z,61.52
2022-09-20T06:41:09.981Z,61.47
2022-09-20T06:42:11.875Z,61.52
2022-09-20T06:43:13.674Z,61.44
2022-09-20T06:44:15.531Z,61.45
2022-09-20T06:45:17.327Z,61.41
2022-09-20T06:46:19.494Z,61.40
2022-09-20T06:47:21.254Z,61.44
2022-09-20T06:48:23.090Z,61.40
2022-09-20T06:49:24.929Z,61.36
2022-09-20T06:50:27.164Z,61.34
2022-09-20T06:51:28.947Z,61.33
2022-09-20T06:52:30.655Z,61.34
2022-09-20T06:53:32.444Z,61.39
2022-09-20T06:54:34.167Z,61.48
2022-09-20T06:55:35.989Z,61.47
2022-09-20T06:56:37.983Z,61.49
2022-09-20T06:57:39.776Z,61.40
2022-09-20T06:58:41.576Z,61.41
2022-09-20T06:59:43.415Z,61.41
2022-09-20T07:00:45.412Z,61.49
2022-09-20T07:01:47.290Z,61.49
2022-09-20T07:02:49.058Z,61.46
2022-09-20T07:03:50.853Z,61.47
2022-09-20T07:04:52.715Z,61.59
2022-09-20T07:05:54.560Z,61.77
2022-09-20T07:06:56.458Z,61.88
2022-09-20T07:07:58.256Z,62.04
2022-09-20T07:09:00.264Z,62.15
2022-09-20T07:10:02.197Z,62.29
2022-09-20T07:11:04.028Z,62.51
2022-09-20T07:12:05.826Z,62.63
2022-09-20T07:13:07.619Z,62.56
2022-09-20T07:14:09.432Z,62.40
2022-09-20T07:15:11.272Z,62.23
2022-09-20T07:16:13.794Z,62.24
2022-09-20T07:17:15.582Z,62.30
2022-09-20T07:18:17.372Z,62.23
2022-09-20T07:19:19.297Z,62.20
2022-09-20T07:20:21.691Z,62.26
2022-09-20T07:21:23.724Z,62.29
2022-09-20T07:22:25.623Z,62.21
2022-09-20T07:23:27.530Z,62.17
2022-09-20T07:24:29.324Z,62.20
2022-09-20T07:25:31.159Z,62.35
2022-09-20T07:26:33.082Z,62.50
2022-09-20T07:27:34.859Z,62.59
2022-09-20T07:28:36.577Z,62.78
2022-09-20T07:29:38.366Z,62.82
2022-09-20T07:30:40.379Z,62.80
2022-09-20T07:31:42.350Z,62.87
2022-09-20T07:32:44.523Z,62.96
2022-09-20T07:33:46.278Z,62.99
2022-09-20T07:34:48.071Z,63.13
2022-09-20T07:35:49.800Z,63.29
2022-09-20T07:36:52.127Z,63.36
2022-09-20T07:37:54.041Z,63.37
2022-09-20T07:38:55.916Z,63.33
2022-09-20T07:39:57.766Z,63.34
2022-09-20T07:40:59.756Z,63.31
2022-09-20T07:42:01.495Z,63.41
2022-09-20T07:43:03.279Z,63.64
2022-09-20T07:44:05.325Z,63.71
2022-09-20T07:45:07.175Z,63.72
2022-09-20T07:46:09.496Z,63.77
2022-09-20T07:47:11.323Z,63.95
2022-09-20T07:48:13.127Z,64.01
2022-09-20T07:49:14.927Z,63.94
2022-09-20T07:50:17.744Z,63.96
2022-09-20T07:51:19.617Z,64.26
2022-09-20T07:52:21.555Z,64.35
2022-09-20T07:53:23.353Z,64.15
2022-09-20T07:54:25.304Z,64.21
2022-09-20T07:55:27.100Z,64.10
2022-09-20T07:56:29.022Z,64.24
2022-09-20T07:57:30.739Z,64.17
2022-09-20T07:58:32.517Z,64.08
2022-09-20T07:59:34.218Z,64.15
2022-09-20T08:00:36.128Z,64.20
2022-09-20T08:01:37.961Z,64.19
2022-09-20T08:02:39.840Z,64.21
2022-09-20T08:03:41.676Z,64.23
2022-09-20T08:04:43.809Z,64.23
2022-09-20T08:05:45.589Z,64.25
2022-09-20T08:06:47.806Z,64.23
2022-09-20T08:07:49.647Z,64.12
2022-09-20T08:08:51.337Z,64.03
2022-09-20T08:09:53.153Z,64.05
2022-09-20T08:10:55.059Z,64.03
2022-09-20T08:11:57.032Z,64.01
2022-09-20T08:14:07.045Z,63.95
2022-09-20T08:15:09.776Z,63.98
2022-09-20T08:16:09.954Z,63.99
2022-09-20T08:17:11.855Z,64.16
2022-09-20T08:18:13.586Z,64.24
2022-09-20T08:19:15.396Z,64.19
2022-09-20T08:20:17.492Z,64.21
2022-09-20T08:21:19.289Z,64.22
2022-09-20T08:22:21.238Z,64.16
2022-09-20T08:23:24.148Z,64.17
2022-09-20T08:24:26.035Z,64.13
2022-09-20T08:25:27.822Z,64.02
2022-09-20T08:26:30.009Z,64.04
2022-09-20T08:27:31.835Z,64.13
2022-09-20T08:28:33.672Z,64.23
2022-09-20T08:29:35.447Z,64.33
2022-09-20T08:30:37.356Z,64.34
2022-09-20T08:31:39.202Z,64.32
2022-09-20T08:32:40.978Z,64.28
2022-09-20T08:33:42.760Z,64.27
2022-09-20T08:34:49.352Z,64.32
2022-09-20T08:35:48.190Z,64.33
2022-09-20T08:36:50.146Z,64.38
2022-09-20T08:37:52.015Z,64.78
2022-09-20T08:39:58.309Z,64.55
2022-09-20T08:41:00.812Z,64.50
2022-09-20T08:42:02.913Z,64.50
2022-09-20T08:43:05.523Z,64.50
2022-09-20T08:44:07.574Z,64.47
2022-09-20T08:45:09.381Z,64.51
2022-09-20T08:46:12.946Z,64.50
2022-09-20T08:47:14.714Z,64.54
2022-09-20T08:48:16.593Z,64.54
2022-09-20T08:49:18.382Z,64.57
2022-09-20T08:50:20.782Z,64.57
2022-09-20T08:51:23.011Z,64.56
2022-09-20T08:52:25.663Z,64.52
2022-09-20T08:53:28.553Z,64.46
2022-09-20T08:54:32.712Z,64.49
2022-09-20T08:55:37.775Z,64.42
2022-09-20T08:56:38.578Z,64.45
2022-09-20T08:57:40.623Z,64.21
2022-09-20T08:58:42.476Z,63.89
2022-09-20T08:59:44.285Z,63.68
2022-09-20T09:00:47.075Z,63.40
2022-09-20T09:01:49.023Z,63.20
2022-09-20T09:02:51.570Z,62.99
2022-09-20T09:03:53.450Z,62.66
2022-09-20T09:04:55.784Z,62.36
2022-09-20T09:05:58.100Z,61.93
2022-09-20T09:07:00.647Z,61.70
2022-09-20T09:08:04.693Z,61.80
2022-09-20T09:09:06.903Z,61.89
2022-09-20T09:10:09.094Z,61.16
2022-09-20T09:11:11.390Z,60.23
2022-09-20T09:12:13.822Z,59.65
2022-09-20T09:13:16.517Z,59.24
2022-09-20T09:14:18.326Z,58.34
2022-09-20T09:15:20.174Z,57.64
2022-09-20T09:16:23.269Z,57.62
2022-09-20T09:17:28.819Z,57.62
2022-09-20T09:18:31.660Z,57.55
2022-09-20T09:19:34.536Z,56.89
2022-09-20T09:20:38.865Z,56.72
2022-09-20T09:21:41.069Z,56.58
2022-09-20T09:22:42.886Z,56.41
2022-09-20T09:23:44.704Z,56.31
2022-09-20T09:24:46.558Z,56.46
2022-09-20T09:25:48.384Z,56.59
2022-09-20T09:26:50.289Z,56.88
2022-09-20T09:27:52.119Z,57.02
2022-09-20T09:28:53.924Z,56.68
2022-09-20T09:29:56.271Z,56.39
2022-09-20T09:30:58.535Z,56.33
2022-09-20T09:32:00.674Z,56.07
2022-09-20T09:33:02.977Z,56.20
2022-09-20T09:34:04.854Z,56.49
2022-09-20T09:35:07.389Z,56.17
2022-09-20T09:36:11.438Z,55.60
2022-09-20T09:37:13.854Z,55.10
2022-09-20T09:38:16.661Z,55.05
2022-09-20T09:39:18.905Z,54.87
2022-09-20T09:40:21.416Z,54.64
2022-09-20T09:41:23.248Z,54.76
2022-09-20T09:42:26.482Z,54.86
2022-09-20T09:43:29.312Z,54.97
2022-09-20T09:44:31.879Z,55.14
2022-09-20T09:45:34.571Z,55.38
2022-09-20T09:46:37.247Z,55.40
2022-09-20T09:47:39.116Z,55.38
2022-09-20T09:48:41.586Z,55.47
2022-09-20T09:49:43.597Z,55.65
2022-09-20T09:50:45.538Z,55.58
2022-09-20T09:51:47.366Z,55.54
2022-09-20T09:52:49.155Z,55.56
2022-09-20T09:53:51.141Z,55.74
2022-09-20T09:54:52.966Z,55.88
2022-09-20T09:55:54.813Z,56.03
2022-09-20T09:56:56.862Z,56.03
2022-09-20T09:57:58.666Z,55.96
2022-09-20T09:59:00.464Z,55.79
2022-09-20T10:00:10.251Z,55.87
2022-09-20T10:01:06.093Z,55.80
2022-09-20T10:02:08.052Z,55.63
2022-09-20T10:03:10.138Z,55.64
2022-09-20T10:04:11.943Z,55.56
2022-09-20T10:05:13.754Z,55.36
2022-09-20T10:06:15.906Z,55.25
2022-09-20T10:07:17.730Z,55.19
2022-09-20T10:08:19.525Z,55.31
2022-09-20T10:09:21.334Z,55.21
2022-09-20T10:10:23.743Z,55.20
2022-09-20T10:11:25.576Z,55.27
2022-09-20T10:12:27.513Z,55.40
2022-09-20T10:13:29.341Z,55.41
2022-09-20T10:14:31.306Z,55.32
2022-09-20T10:15:33.077Z,55.21
2022-09-20T10:16:35.097Z,55.07
2022-09-20T10:17:37.052Z,54.91
2022-09-20T10:18:38.839Z,54.82
2022-09-20T10:19:40.693Z,54.85
2022-09-20T10:20:42.712Z,55.03
2022-09-20T10:21:44.833Z,55.15
2022-09-20T10:23:00.300Z,54.88
2022-09-20T10:24:06.219Z,54.53
2022-09-20T10:24:54.411Z,54.32
2022-09-20T10:25:56.696Z,54.11
2022-09-20T10:26:59.260Z,54.20
2022-09-20T10:28:01.165Z,54.38
2022-09-20T10:29:02.960Z,54.48
2022-09-20T10:30:05.525Z,54.63
2022-09-20T10:31:07.789Z,54.68
2022-09-20T10:32:12.307Z,54.68
2022-09-20T10:33:13.482Z,54.76
2022-09-20T10:34:15.356Z,54.75
2022-09-20T10:35:17.176Z,54.80
2022-09-20T10:36:20.259Z,54.90
2022-09-20T10:37:22.645Z,54.67
2022-09-20T10:38:24.489Z,54.52
2022-09-20T10:39:26.400Z,54.39
2022-09-20T10:40:29.383Z,54.20
2022-09-20T10:41:31.798Z,53.91
2022-09-20T10:42:33.692Z,53.80
2022-09-20T10:43:36.184Z,53.82
2022-09-20T10:44:38.008Z,53.85
2022-09-20T10:46:44.392Z,53.95
2022-09-20T10:47:46.252Z,53.83
2022-09-20T10:48:48.803Z,53.59
2022-09-20T10:49:51.594Z,53.51
2022-09-20T10:50:53.872Z,53.65
2022-09-20T10:51:55.948Z,53.92
2022-09-20T10:52:58.327Z,53.86
2022-09-20T10:54:00.863Z,53.55
2022-09-20T10:55:02.971Z,53.35
2022-09-20T10:56:04.888Z,53.21
2022-09-20T10:57:06.820Z,53.27
2022-09-20T10:58:09.292Z,53.44
2022-09-20T10:59:11.759Z,53.61
2022-09-20T11:00:14.224Z,53.80
2022-09-20T11:01:16.113Z,53.84
2022-09-20T11:02:19.963Z,53.39
2022-09-20T11:03:22.461Z,53.02
2022-09-20T11:04:24.269Z,52.97
2022-09-20T11:05:26.086Z,53.12
2022-09-20T11:06:28.452Z,52.95
2022-09-20T11:07:30.283Z,53.21
2022-09-20T11:08:32.351Z,53.40
2022-09-20T11:09:34.194Z,53.50
2022-09-20T11:10:36.098Z,53.61
2022-09-20T11:11:38.072Z,53.71
2022-09-20T11:12:39.905Z,53.85
2022-09-20T11:13:41.748Z,53.98
2022-09-20T11:14:43.681Z,54.14
2022-09-20T11:15:45.569Z,54.26
2022-09-20T11:16:47.763Z,54.31
2022-09-20T11:17:49.867Z,53.89
2022-09-20T11:18:52.201Z,53.51
2022-09-20T11:19:54.019Z,53.74
2022-09-20T11:20:55.909Z,53.49
2022-09-20T11:21:57.712Z,52.91
2022-09-20T11:22:59.513Z,52.84
2022-09-20T11:24:01.366Z,52.48
2022-09-20T11:25:03.160Z,52.58
2022-09-20T11:26:05.267Z,52.77
2022-09-20T11:27:07.073Z,52.05
2022-09-20T11:28:08.865Z,52.34
2022-09-20T11:29:10.690Z,51.45
2022-09-20T11:30:12.772Z,51.91
2022-09-20T11:31:14.612Z,52.14
2022-09-20T11:32:16.518Z,51.50
2022-09-20T11:33:18.378Z,51.56
2022-09-20T11:34:20.230Z,52.04
2022-09-20T11:35:22.029Z,52.45
2022-09-20T11:36:24.347Z,52.45
2022-09-20T11:37:26.144Z,52.53
2022-09-20T11:38:27.952Z,52.62
2022-09-20T11:39:29.780Z,52.62
2022-09-20T11:40:31.718Z,52.26
2022-09-20T11:41:33.498Z,51.82
2022-09-20T11:42:35.292Z,51.79
2022-09-20T11:43:37.092Z,51.81
2022-09-20T11:44:38.911Z,52.06
2022-09-20T11:45:40.775Z,52.32
2022-09-20T11:46:42.639Z,52.16
2022-09-20T11:47:54.585Z,52.28
2022-09-20T11:48:48.065Z,52.61
2022-09-20T11:49:49.903Z,52.69
2022-09-20T11:50:51.813Z,52.79
2022-09-20T11:51:53.610Z,52.33
2022-09-20T11:52:55.402Z,51.68
2022-09-20T11:53:57.210Z,51.92
2022-09-20T11:54:59.043Z,52.33
2022-09-20T11:56:00.762Z,52.21
2022-09-20T11:57:02.549Z,52.11
2022-09-20T11:58:04.341Z,51.86
2022-09-20T11:59:06.138Z,51.81
2022-09-20T12:00:08.366Z,51.84
2022-09-20T12:01:10.259Z,51.62
2022-09-20T12:02:12.196Z,51.48
2022-09-20T12:03:13.977Z,51.34
2022-09-20T12:04:31.863Z,51.58
2022-09-20T12:05:19.397Z,51.70
2022-09-20T12:06:22.012Z,51.74
2022-09-20T12:07:23.803Z,51.70
2022-09-20T12:08:25.619Z,51.62
2022-09-20T12:09:27.444Z,51.22
2022-09-20T12:10:31.101Z,51.09
2022-09-20T12:11:32.918Z,50.85
2022-09-20T12:12:34.704Z,50.90
2022-09-20T12:13:36.502Z,50.95
2022-09-20T12:14:38.310Z,50.78
2022-09-20T12:15:40.164Z,50.88
2022-09-20T12:16:42.228Z,51.02
2022-09-20T12:17:43.993Z,51.07
2022-09-20T12:18:45.818Z,51.03
2022-09-20T12:19:47.608Z,51.08
2022-09-20T12:20:49.744Z,50.93
2022-09-20T12:21:51.536Z,50.89
2022-09-20T12:22:53.345Z,50.83
2022-09-20T12:23:55.135Z,50.82
2022-09-20T12:24:56.928Z,50.84
2022-09-20T12:25:58.663Z,50.72
2022-09-20T12:27:00.565Z,50.63
2022-09-20T12:28:02.370Z,50.45
2022-09-20T12:29:04.169Z,50.53
2022-09-20T12:30:06.262Z,50.60
2022-09-20T12:31:08.110Z,50.65
2022-09-20T12:32:10.123Z,50.76
2022-09-20T12:33:11.925Z,50.77
2022-09-20T12:34:13.740Z,50.87
2022-09-20T12:35:15.538Z,51.04
2022-09-20T12:36:18.393Z,50.80
2022-09-20T12:37:20.177Z,50.88
2022-09-20T12:38:21.878Z,50.98
2022-09-20T12:39:28.892Z,50.84
2022-09-20T12:40:27.317Z,50.65
2022-09-20T12:41:29.299Z,50.50
2022-09-20T12:42:31.128Z,50.52
2022-09-20T12:43:32.924Z,50.46
2022-09-20T12:44:34.719Z,49.85
2022-09-20T12:45:36.551Z,49.43
2022-09-20T12:46:38.453Z,49.49
2022-09-20T12:47:40.724Z,49.58
2022-09-20T12:48:42.533Z,49.57
2022-09-20T12:49:44.325Z,49.81
2022-09-20T12:50:46.137Z,49.65
2022-09-20T12:51:48.293Z,49.62
2022-09-20T12:52:50.098Z,49.73
2022-09-20T12:53:51.891Z,49.85
2022-09-20T12:54:53.712Z,49.72
2022-09-20T12:55:55.517Z,49.70
2022-09-20T12:56:57.475Z,49.51
2022-09-20T12:58:00.426Z,49.78
2022-09-20T12:59:02.242Z,49.86
2022-09-20T13:00:04.135Z,49.40
2022-09-20T13:01:08.395Z,49.04
2022-09-20T13:02:09.628Z,48.06
2022-09-20T13:03:11.464Z,48.80
2022-09-20T13:04:13.288Z,48.62
2022-09-20T13:05:15.088Z,48.87
2022-09-20T13:06:17.193Z,48.87
2022-09-20T13:07:19.077Z,48.45
2022-09-20T13:08:20.879Z,48.54
2022-09-20T13:09:22.677Z,48.72
2022-09-20T13:10:24.781Z,48.11
2022-09-20T13:11:26.654Z,47.41
2022-09-20T13:12:28.457Z,47.30
2022-09-20T13:13:30.253Z,47.53
2022-09-20T13:14:32.052Z,48.07
2022-09-20T13:15:33.868Z,47.70
2022-09-20T13:16:35.957Z,48.43
2022-09-20T13:17:37.812Z,47.85
2022-09-20T13:18:39.655Z,47.66
2022-09-20T13:19:41.457Z,48.24
2022-09-20T13:20:43.358Z,48.80
2022-09-20T13:21:45.160Z,49.07